Neyland, United Kingdom
Current Conditions -  °F | °C
As of 1:50 PM on Saturday 20 Dec 2014 (Local Time) from EGOP Reporting Station
Broken Clouds Broken Clouds  
Wind Chill: 42°   Ceiling: 3400
Heat Index: 48°   Visibility: 6mi
Dew Point: 43°   Wind: 18mph
Humidity: 82%   Direction: 290°WNW
Pressure: 30.42"   Gusts: NA
Location:  51.71°N, 4.95°W
Report Text: EGOP 201350Z AUTO 29016KT 9999 // BKN034/// 09/06 Q1030
Loading
Personal Weather Stations






























Interactive Weather Map New forecast layout! Learn more

10-Day Weather Forecast

Advertisements
Track Severe Weather on mobile